createdAt,value
2023-01-03T00:00:59.198Z,11.00
2023-01-03T00:05:59.420Z,10.15
2023-01-03T00:10:58.160Z,9.80
2023-01-03T00:15:57.257Z,9.32
2023-01-03T00:20:56.054Z,9.57
2023-01-03T00:25:56.195Z,9.93
2023-01-03T00:30:55.020Z,9.27
2023-01-03T00:35:53.776Z,8.73
2023-01-03T00:40:52.761Z,10.48
2023-01-03T00:45:53.125Z,10.15
2023-01-03T00:50:52.185Z,8.50
2023-01-03T00:55:51.288Z,11.10
2023-01-03T01:00:50.249Z,10.02
2023-01-03T01:05:50.509Z,10.50
2023-01-03T01:11:02.919Z,16.67
2023-01-03T01:16:06.646Z,33.53
2023-01-03T01:21:08.407Z,41.97
2023-01-03T01:26:08.869Z,31.20
2023-01-03T01:31:09.053Z,20.80
2023-01-03T01:36:10.512Z,21.42
2023-01-03T01:41:09.369Z,14.88
2023-01-03T01:46:17.471Z,19.88
2023-01-03T01:51:19.472Z,33.80
2023-01-03T01:56:22.693Z,28.08
2023-01-03T02:01:23.329Z,16.65
2023-01-03T02:06:25.470Z,14.90
2023-01-03T02:11:32.689Z,13.02
2023-01-03T02:16:48.508Z,15.68
2023-01-03T02:22:37.684Z,15.57
2023-01-03T02:28:21.009Z,21.38
2023-01-03T02:33:31.375Z,16.50
2023-01-03T02:38:42.634Z,18.25
2023-01-03T02:43:49.061Z,15.57
2023-01-03T02:48:55.559Z,13.90
2023-01-03T02:53:54.650Z,13.70
2023-01-03T02:58:58.025Z,12.23
2023-01-03T03:03:59.440Z,11.32
2023-01-03T03:08:58.496Z,12.15
2023-01-03T03:14:01.876Z,11.57
2023-01-03T03:19:03.386Z,17.35
2023-01-03T03:24:26.512Z,11.73
2023-01-03T03:29:27.991Z,11.10
2023-01-03T03:34:32.219Z,12.80
2023-01-03T03:39:50.152Z,12.98
2023-01-03T03:45:02.982Z,11.07
2023-01-03T03:50:07.618Z,14.60
2023-01-03T03:55:13.206Z,12.05
2023-01-03T04:00:17.385Z,10.35
2023-01-03T04:05:20.610Z,12.73
2023-01-03T04:10:20.832Z,15.20
2023-01-03T04:15:19.965Z,14.40
2023-01-03T04:20:20.707Z,11.75
2023-01-03T04:25:19.493Z,12.10
2023-01-03T04:30:18.620Z,20.65
2023-01-03T04:35:17.489Z,31.08
2023-01-03T04:40:17.834Z,12.15
2023-01-03T04:45:17.253Z,20.10
2023-01-03T04:50:16.157Z,16.65
2023-01-03T04:55:14.960Z,15.30
2023-01-03T05:00:16.264Z,14.18
2023-01-03T05:05:15.165Z,11.60
2023-01-03T05:10:14.071Z,12.75
2023-01-03T05:15:14.381Z,18.73
2023-01-03T05:20:30.801Z,20.88
2023-01-03T05:25:47.321Z,18.98
2023-01-03T05:30:47.496Z,17.88
2023-01-03T05:35:48.583Z,19.05
2023-01-03T05:40:47.567Z,22.65
2023-01-03T05:45:51.651Z,32.65
2023-01-03T05:50:52.412Z,29.13
2023-01-03T05:55:51.690Z,26.33
2023-01-03T06:00:51.929Z,25.58
2023-01-03T06:05:50.780Z,26.38
2023-01-03T06:10:49.630Z,56.15
2023-01-03T06:16:08.683Z,91.53
2023-01-03T06:21:09.256Z,80.68
2023-01-03T06:26:08.190Z,61.75
2023-01-03T06:31:07.666Z,48.38
2023-01-03T06:36:10.601Z,54.95
2023-01-03T06:41:09.445Z,47.75
2023-01-03T06:46:25.958Z,77.50
2023-01-03T06:51:44.910Z,61.65
2023-01-03T06:56:43.691Z,85.18
2023-01-03T07:01:42.898Z,71.72
2023-01-03T07:06:43.493Z,51.55
2023-01-03T07:11:43.216Z,55.58
2023-01-03T07:16:45.398Z,90.57
2023-01-03T07:21:46.268Z,51.83
2023-01-03T07:26:46.961Z,42.08
2023-01-03T07:31:45.829Z,37.78
2023-01-03T07:36:46.080Z,36.35
2023-01-03T07:42:02.368Z,33.15
2023-01-03T07:47:01.256Z,24.60
2023-01-03T07:52:01.544Z,23.50
2023-01-03T07:57:01.111Z,21.52
2023-01-03T08:02:00.042Z,20.30
2023-01-03T08:06:59.068Z,18.33
2023-01-03T08:12:16.559Z,18.30
2023-01-03T08:17:15.369Z,21.77
2023-01-03T08:22:14.286Z,22.20
2023-01-03T08:27:14.664Z,24.10
2023-01-03T08:32:14.044Z,16.55
2023-01-03T08:37:17.052Z,14.20
2023-01-03T08:42:21.226Z,14.02
2023-01-03T08:47:20.827Z,13.25
2023-01-03T08:52:19.707Z,12.88
2023-01-03T08:57:20.074Z,11.98
2023-01-03T09:02:18.995Z,17.23
2023-01-03T09:07:17.918Z,16.23
2023-01-03T09:12:16.701Z,14.07
2023-01-03T09:17:16.863Z,12.93
2023-01-03T09:22:15.620Z,19.08
2023-01-03T09:27:14.439Z,13.68
2023-01-03T09:32:13.335Z,10.32
2023-01-03T09:37:13.606Z,11.27
2023-01-03T09:42:38.390Z,10.40
2023-01-03T09:47:40.314Z,9.93
2023-01-03T09:53:05.281Z,12.15
2023-01-03T09:58:21.834Z,11.10
2023-01-03T10:03:54.524Z,8.73
2023-01-03T10:09:08.165Z,7.93
2023-01-03T10:14:30.107Z,8.60
2023-01-03T10:19:50.825Z,7.75
2023-01-03T10:24:57.130Z,8.73
2023-01-03T10:30:01.487Z,9.63
2023-01-03T10:35:18.581Z,10.02
2023-01-03T10:40:19.200Z,8.68
2023-01-03T10:45:20.898Z,11.07
2023-01-03T10:50:23.442Z,11.93
2023-01-03T10:55:26.530Z,8.85
2023-01-03T11:00:29.848Z,8.27
2023-01-03T11:05:32.199Z,9.63
2023-01-03T11:10:38.287Z,6.65
2023-01-03T11:15:39.753Z,6.22
2023-01-03T11:20:45.189Z,7.95
2023-01-03T11:25:52.866Z,6.70
2023-01-03T11:30:59.295Z,7.97
2023-01-03T11:36:11.224Z,7.47
2023-01-03T11:41:27.635Z,9.17
2023-01-03T11:46:47.277Z,11.40
2023-01-03T11:51:54.012Z,8.57
2023-01-03T11:56:54.635Z,8.07
2023-01-03T12:02:17.841Z,11.32
2023-01-03T12:07:47.058Z,8.57
2023-01-03T12:13:06.284Z,7.80
2023-01-03T12:18:14.076Z,8.00
2023-01-03T12:23:20.486Z,7.68
2023-01-03T12:28:27.653Z,9.57
2023-01-03T12:33:32.674Z,9.73
2023-01-03T12:38:37.615Z,12.23
2023-01-03T12:43:52.490Z,10.02
2023-01-03T12:48:59.540Z,11.23
2023-01-03T12:54:17.821Z,13.60
2023-01-03T12:59:39.378Z,9.57
2023-01-03T13:04:43.246Z,11.45
2023-01-03T13:09:46.965Z,9.65
2023-01-03T13:14:55.479Z,11.20
2023-01-03T13:19:57.472Z,9.07
2023-01-03T13:24:56.413Z,10.43
2023-01-03T13:30:02.338Z,10.52
2023-01-03T13:35:33.459Z,11.10
2023-01-03T13:41:16.159Z,10.80
2023-01-03T13:45:56.324Z,10.90
2023-01-03T13:51:09.091Z,11.52
2023-01-03T13:56:24.794Z,10.25
2023-01-03T14:01:39.168Z,9.98
2023-01-03T14:07:06.388Z,13.45
2023-01-03T14:12:43.552Z,15.18
2023-01-03T14:17:48.501Z,16.17
2023-01-03T14:22:50.494Z,14.40
2023-01-03T14:32:49.859Z,13.77
2023-01-03T14:37:48.814Z,16.08
2023-01-03T14:42:48.201Z,24.42
2023-01-03T14:47:47.926Z,23.05
2023-01-03T14:52:52.962Z,21.95
2023-01-03T14:57:52.880Z,47.55
2023-01-03T15:02:52.309Z,73.28
2023-01-03T15:07:53.108Z,81.10
2023-01-03T15:13:00.745Z,69.82
2023-01-03T15:18:05.235Z,45.58
2023-01-03T15:23:06.121Z,48.30
2023-01-03T15:28:24.592Z,27.75
2023-01-03T15:33:33.237Z,21.70
2023-01-03T15:38:37.652Z,26.00
2023-01-03T15:43:39.339Z,36.00
2023-01-03T15:48:38.473Z,34.10
2023-01-03T15:53:44.591Z,44.80
2023-01-03T15:58:48.042Z,26.75
2023-01-03T16:03:58.150Z,27.10
2023-01-03T16:08:58.423Z,31.88
2023-01-03T16:13:59.747Z,31.38
2023-01-03T16:18:59.296Z,28.17
2023-01-03T16:23:59.676Z,23.35
2023-01-03T16:28:59.529Z,23.92
2023-01-03T16:34:09.127Z,27.77
2023-01-03T16:39:16.457Z,22.65
2023-01-03T16:44:15.245Z,20.58
2023-01-03T16:49:14.212Z,19.25
2023-01-03T16:54:16.540Z,22.30
2023-01-03T16:59:16.178Z,24.63
2023-01-03T17:04:15.174Z,18.50
2023-01-03T17:09:17.620Z,21.88
2023-01-03T17:14:20.093Z,25.30
2023-01-03T17:20:01.906Z,24.73
2023-01-03T17:24:41.539Z,28.48
2023-01-03T17:29:41.563Z,28.48
2023-01-03T17:34:40.336Z,46.50
2023-01-03T17:39:40.641Z,48.53
2023-01-03T17:44:39.536Z,69.38
2023-01-03T17:49:37.277Z,64.63
2023-01-03T17:54:40.475Z,49.70
2023-01-03T17:59:42.241Z,50.40
2023-01-03T18:05:14.214Z,45.92
2023-01-03T18:10:06.666Z,41.78
2023-01-03T18:15:18.220Z,42.72
2023-01-03T18:20:31.860Z,43.80
2023-01-03T18:25:33.087Z,40.75
2023-01-03T18:30:35.093Z,45.97
2023-01-03T18:35:39.054Z,48.03
2023-01-03T18:40:43.641Z,50.65
2023-01-03T18:45:44.174Z,58.97
2023-01-03T18:50:43.914Z,81.65
2023-01-03T18:55:43.324Z,82.60
2023-01-03T19:00:43.732Z,81.22
2023-01-03T19:05:42.744Z,76.82
2023-01-03T19:10:41.723Z,68.22
2023-01-03T19:15:40.558Z,71.25
2023-01-03T19:20:40.894Z,65.43
2023-01-03T19:25:39.866Z,59.33
2023-01-03T19:30:40.511Z,58.90
2023-01-03T19:35:40.785Z,60.25
2023-01-03T19:40:41.471Z,62.25
2023-01-03T19:45:42.562Z,58.97
2023-01-03T19:50:42.840Z,54.85
2023-01-03T19:55:44.132Z,49.70
2023-01-03T20:00:46.010Z,50.00
2023-01-03T20:05:49.295Z,50.55
2023-01-03T20:10:53.845Z,50.53
2023-01-03T20:15:58.072Z,52.35
2023-01-03T20:21:02.342Z,54.83
2023-01-03T20:26:06.885Z,57.85
2023-01-03T20:31:08.817Z,66.80
2023-01-03T20:36:23.136Z,64.10
2023-01-03T20:41:37.590Z,78.63
2023-01-03T20:46:43.574Z,82.93
2023-01-03T20:51:46.129Z,77.00
2023-01-03T20:56:48.268Z,76.60
2023-01-03T21:01:50.836Z,72.68
2023-01-03T21:06:52.927Z,69.93
2023-01-03T21:11:52.708Z,72.70
2023-01-03T21:16:54.011Z,96.50
2023-01-03T21:22:07.046Z,89.15
2023-01-03T21:27:06.506Z,85.97
2023-01-03T21:32:13.233Z,90.93
2023-01-03T21:37:19.272Z,92.80
2023-01-03T21:47:34.389Z,93.35
2023-01-03T21:52:34.704Z,90.40
2023-01-03T21:57:35.547Z,69.15
2023-01-03T22:02:56.216Z,57.83
2023-01-03T22:08:01.119Z,53.95
2023-01-03T22:13:02.265Z,58.28
2023-01-03T22:18:01.132Z,43.00
2023-01-03T22:23:01.379Z,34.08
2023-01-03T22:28:00.165Z,31.38
2023-01-03T22:32:59.712Z,30.95
2023-01-03T22:37:58.521Z,25.85
2023-01-03T22:42:58.699Z,27.20
2023-01-03T22:47:59.268Z,22.98
2023-01-03T22:52:58.104Z,19.80
2023-01-03T22:57:58.193Z,22.27
2023-01-03T23:02:57.103Z,23.38
2023-01-03T23:07:55.886Z,28.20
2023-01-03T23:13:00.822Z,31.52
2023-01-03T23:18:01.022Z,42.65
2023-01-03T23:23:04.416Z,45.42
2023-01-03T23:33:03.076Z,33.75
2023-01-03T23:38:01.846Z,35.92
2023-01-03T23:43:00.951Z,38.50
2023-01-03T23:48:00.337Z,38.05
2023-01-03T23:53:00.782Z,41.58
2023-01-03T23:57:59.547Z,43.03
